Search for airport 
image banner adimage banner adimage banner ad
image banner ad

KOQW - Maquoketa Muni

Located in Maquoketa, United States

ICAO - OQW, IATA -

Data provided by Airmate  

General information

Coordinates: N42°3'0" W90°44'20"
Elevation is 769 feet MSL.
Magnetic variation is 00° East
View others Airports in Iowa

Operational data

Special qualification required
Current time UTC:
Current local time:
Weather at : KDBQ - Dubuque Rgnl ( 39 km )
METAR: KDBQ 181753Z VRB03KT 10SM CLR 29/17 A2984 RMK AO2 SLP095 T02890167 10294 20217 50002
TAF: KDBQ 181726Z 1818/1918 VRB03KT P6SM SCT250 FM191500 29010KT P6SM SCT250
View NOTAMs / SUP AIP / TFR affecting this airport [VIEW]
Communications frequencies: [VIEW]

Runways:

RWY identifierQFULength (ft)Width (ft)SurfaceLDA (ft)
15155°330460CONC
33335°330460CONC

Airport contact information

Address: Maquoketa United States

Satellite view of KOQW